createdAt,value
2019-02-28T00:00:16.224Z,97.46
2019-02-28T00:03:03.939Z,96.41
2019-02-28T00:05:52.523Z,96.99
2019-02-28T00:08:40.880Z,97.21
2019-02-28T00:11:29.322Z,97.05
2019-02-28T00:14:17.396Z,97.30
2019-02-28T00:17:06.253Z,97.97
2019-02-28T00:19:55.305Z,97.92
2019-02-28T00:22:48.378Z,98.48
2019-02-28T00:25:37.785Z,97.94
2019-02-28T00:28:23.061Z,97.54
2019-02-28T00:31:14.187Z,97.50
2019-02-28T00:34:04.568Z,97.64
2019-02-28T00:36:53.462Z,96.96
2019-02-28T00:39:40.840Z,97.79
2019-02-28T00:42:29.290Z,97.42
2019-02-28T00:45:17.368Z,97.81
2019-02-28T00:48:05.907Z,97.17
2019-02-28T00:50:54.124Z,97.41
2019-02-28T00:53:42.283Z,96.40
2019-02-28T00:56:30.731Z,95.53
2019-02-28T00:59:18.810Z,96.45
2019-02-28T01:02:07.081Z,97.81
2019-02-28T01:04:55.409Z,98.14
2019-02-28T01:07:49.156Z,97.32
2019-02-28T01:10:39.314Z,97.30
2019-02-28T01:13:28.141Z,96.18
2019-02-28T01:16:19.328Z,98.76
2019-02-28T01:19:09.078Z,98.00
2019-02-28T01:21:56.310Z,98.10
2019-02-28T01:24:43.905Z,98.82
2019-02-28T01:27:32.301Z,99.95
2019-02-28T01:30:20.035Z,98.25
2019-02-28T01:33:08.532Z,98.47
2019-02-28T01:35:57.036Z,97.76
2019-02-28T01:38:46.228Z,99.37
2019-02-28T01:41:34.439Z,99.68
2019-02-28T01:44:22.547Z,99.75
2019-02-28T01:47:11.218Z,100.00
2019-02-28T01:49:59.306Z,99.13
2019-02-28T01:52:47.564Z,97.90
2019-02-28T01:55:36.313Z,97.49
2019-02-28T01:58:24.863Z,96.59
2019-02-28T02:01:12.709Z,96.97
2019-02-28T02:04:00.447Z,96.61
2019-02-28T02:06:48.927Z,97.20
2019-02-28T02:09:36.665Z,95.83
2019-02-28T02:12:25.152Z,95.35
2019-02-28T02:15:16.867Z,96.31
2019-02-28T02:18:02.771Z,96.61
2019-02-28T02:20:51.215Z,96.70
2019-02-28T02:23:39.804Z,96.59
2019-02-28T02:26:27.575Z,96.09
2019-02-28T02:29:15.880Z,97.42
2019-02-28T02:32:03.654Z,96.43
2019-02-28T02:34:52.183Z,96.55
2019-02-28T02:37:40.724Z,96.46
2019-02-28T02:40:30.212Z,97.30
2019-02-28T02:43:21.855Z,97.20
2019-02-28T02:46:09.325Z,95.91
2019-02-28T02:48:57.654Z,98.20
2019-02-28T02:51:50.526Z,98.46
2019-02-28T02:54:35.200Z,99.21
2019-02-28T02:57:23.219Z,100.00
2019-02-28T03:00:15.000Z,99.90
2019-02-28T03:03:05.988Z,99.69
2019-02-28T03:05:52.912Z,99.23
2019-02-28T03:08:42.475Z,99.33
2019-02-28T03:11:30.978Z,97.73
2019-02-28T03:14:19.066Z,97.57
2019-02-28T03:17:11.536Z,97.37
2019-02-28T03:19:56.985Z,96.13
2019-02-28T03:22:45.610Z,95.92
2019-02-28T03:25:33.970Z,96.78
2019-02-28T03:28:22.119Z,96.66
2019-02-28T03:31:14.119Z,97.28
2019-02-28T03:34:10.327Z,97.51
2019-02-28T03:36:55.444Z,97.23
2019-02-28T03:39:38.700Z,97.71
2019-02-28T03:42:28.967Z,98.14
2019-02-28T03:45:16.547Z,97.73
2019-02-28T03:48:04.688Z,96.95
2019-02-28T03:50:55.215Z,95.82
2019-02-28T03:53:42.626Z,94.83
2019-02-28T03:56:30.357Z,94.77
2019-02-28T03:59:18.834Z,94.85
2019-02-28T04:02:08.734Z,95.66
2019-02-28T04:04:57.060Z,96.54
2019-02-28T04:07:52.904Z,97.53
2019-02-28T04:10:34.539Z,97.62
2019-02-28T04:13:22.605Z,96.40
2019-02-28T04:16:11.131Z,96.65
2019-02-28T04:18:59.653Z,97.16
2019-02-28T04:21:48.018Z,96.89
2019-02-28T04:24:35.992Z,96.72
2019-02-28T04:27:23.775Z,97.15
2019-02-28T04:30:12.608Z,96.76
2019-02-28T04:33:01.483Z,97.65
2019-02-28T04:35:50.415Z,96.78
2019-02-28T04:38:38.528Z,97.52
2019-02-28T04:41:26.619Z,98.28
2019-02-28T04:44:15.381Z,100.00
2019-02-28T04:47:06.839Z,100.00
2019-02-28T04:49:57.013Z,99.17
2019-02-28T04:52:48.040Z,94.81
2019-02-28T04:55:34.203Z,94.17
2019-02-28T04:58:22.413Z,95.62
2019-02-28T05:01:12.382Z,98.83
2019-02-28T05:04:02.344Z,99.95
2019-02-28T05:06:52.216Z,99.03
2019-02-28T05:09:40.593Z,98.69
2019-02-28T05:12:30.925Z,98.21
2019-02-28T05:15:18.637Z,97.95
2019-02-28T05:18:07.128Z,97.21
2019-02-28T05:20:55.189Z,96.79
2019-02-28T05:23:43.385Z,96.57
2019-02-28T05:26:37.817Z,94.74
2019-02-28T05:29:26.329Z,95.61
2019-02-28T05:32:14.302Z,94.59
2019-02-28T05:35:02.659Z,93.72
2019-02-28T05:37:50.912Z,93.84
2019-02-28T05:40:41.406Z,94.05
2019-02-28T05:43:29.241Z,93.34
2019-02-28T05:46:20.350Z,92.92
2019-02-28T05:49:09.002Z,92.62
2019-02-28T05:52:07.757Z,92.27
2019-02-28T05:54:57.740Z,92.05
2019-02-28T05:57:45.024Z,90.15
2019-02-28T06:00:36.651Z,90.37
2019-02-28T06:03:23.083Z,91.55
2019-02-28T06:06:10.798Z,92.15
2019-02-28T06:08:58.867Z,93.78
2019-02-28T06:11:47.257Z,94.41
2019-02-28T06:14:35.723Z,94.39
2019-02-28T06:17:23.899Z,94.24
2019-02-28T06:20:12.039Z,94.10
2019-02-28T06:23:00.468Z,93.76
2019-02-28T06:25:49.040Z,91.12
2019-02-28T06:28:37.392Z,89.50
2019-02-28T06:31:27.142Z,88.26
2019-02-28T06:34:15.306Z,88.12
2019-02-28T06:37:03.666Z,86.75
2019-02-28T06:39:53.254Z,86.49
2019-02-28T06:42:43.521Z,87.44
2019-02-28T06:45:30.943Z,87.49
2019-02-28T06:48:20.878Z,89.06
2019-02-28T06:51:09.963Z,89.92
2019-02-28T06:53:58.340Z,89.49
2019-02-28T06:56:46.231Z,90.45
2019-02-28T06:59:36.177Z,89.79
2019-02-28T07:02:23.573Z,88.98
2019-02-28T07:05:11.986Z,88.37
2019-02-28T07:08:00.632Z,85.59
2019-02-28T07:10:49.324Z,83.55
2019-02-28T07:13:40.019Z,82.49
2019-02-28T07:16:26.863Z,81.66
2019-02-28T07:19:15.600Z,81.08
2019-02-28T07:22:03.948Z,80.56
2019-02-28T07:24:52.425Z,79.56
2019-02-28T07:27:40.086Z,79.40
2019-02-28T07:30:27.748Z,80.50
2019-02-28T07:33:16.359Z,78.41
2019-02-28T07:36:05.672Z,78.17
2019-02-28T07:38:53.951Z,78.30
2019-02-28T07:41:42.425Z,77.92
2019-02-28T07:44:30.838Z,77.97
2019-02-28T07:47:19.136Z,77.67
2019-02-28T07:50:10.785Z,76.19
2019-02-28T07:52:57.493Z,75.80
2019-02-28T07:55:45.800Z,72.74
2019-02-28T07:58:34.233Z,72.11
2019-02-28T08:01:24.506Z,71.30
2019-02-28T08:04:11.516Z,71.04
2019-02-28T08:06:59.599Z,70.89
2019-02-28T08:09:48.006Z,70.11
2019-02-28T08:12:35.772Z,71.54
2019-02-28T08:15:24.307Z,70.68
2019-02-28T08:18:15.730Z,70.08
2019-02-28T08:21:02.174Z,69.93
2019-02-28T08:23:49.599Z,69.55
2019-02-28T08:26:37.872Z,68.84
2019-02-28T08:29:26.215Z,68.86
2019-02-28T08:32:14.696Z,69.80
2019-02-28T08:35:02.757Z,69.26
2019-02-28T08:37:55.648Z,68.75
2019-02-28T08:40:39.972Z,68.33
2019-02-28T08:43:28.028Z,67.49
2019-02-28T08:46:16.180Z,66.72
2019-02-28T08:49:07.249Z,65.73
2019-02-28T08:51:53.951Z,66.35
2019-02-28T08:54:42.454Z,66.82
2019-02-28T08:57:30.824Z,66.01
2019-02-28T09:00:19.421Z,65.38
2019-02-28T09:03:07.158Z,66.13
2019-02-28T09:05:55.039Z,65.23
2019-02-28T09:08:42.708Z,63.96
2019-02-28T09:11:31.016Z,63.15
2019-02-28T09:14:19.336Z,63.68
2019-02-28T09:17:07.686Z,63.20
2019-02-28T09:19:56.037Z,62.96
2019-02-28T09:22:44.383Z,62.20
2019-02-28T09:25:32.275Z,62.46
2019-02-28T09:28:20.911Z,63.07
2019-02-28T09:31:09.000Z,62.33
2019-02-28T09:33:58.870Z,62.82
2019-02-28T09:36:46.153Z,62.44
2019-02-28T09:39:34.718Z,62.08
2019-02-28T09:42:23.188Z,61.50
2019-02-28T09:45:13.013Z,60.40
2019-02-28T09:48:02.307Z,61.30
2019-02-28T09:50:50.807Z,60.44
2019-02-28T09:53:38.563Z,59.41
2019-02-28T09:56:27.428Z,58.44
2019-02-28T09:59:15.474Z,56.28
2019-02-28T10:02:08.188Z,57.01
2019-02-28T10:04:52.664Z,57.18
2019-02-28T10:07:41.142Z,58.36
2019-02-28T10:10:29.528Z,58.52
2019-02-28T10:13:18.352Z,57.30
2019-02-28T10:16:06.904Z,55.21
2019-02-28T10:18:55.334Z,54.94
2019-02-28T10:21:43.723Z,55.71
2019-02-28T10:24:31.587Z,55.19
2019-02-28T10:27:20.150Z,55.18
2019-02-28T10:30:09.964Z,54.75
2019-02-28T10:32:57.631Z,54.33
2019-02-28T10:35:45.380Z,54.43
2019-02-28T10:38:33.981Z,54.04
2019-02-28T10:41:24.174Z,54.83
2019-02-28T10:44:11.953Z,55.03
2019-02-28T10:47:00.061Z,53.98
2019-02-28T10:49:47.729Z,54.61
2019-02-28T10:52:36.166Z,54.84
2019-02-28T10:55:24.571Z,53.41
2019-02-28T10:58:15.250Z,53.31
2019-02-28T11:01:07.773Z,53.20
2019-02-28T11:03:50.811Z,52.57
2019-02-28T11:06:40.208Z,52.77
2019-02-28T11:09:28.686Z,52.25
2019-02-28T11:12:19.928Z,52.13
2019-02-28T11:15:06.410Z,53.32
2019-02-28T11:17:54.548Z,53.47
2019-02-28T11:20:43.128Z,53.01
2019-02-28T11:23:31.241Z,52.51
2019-02-28T11:26:19.815Z,52.71
2019-02-28T11:29:07.470Z,52.36
2019-02-28T11:31:55.724Z,51.85
2019-02-28T11:34:45.768Z,51.48
2019-02-28T11:37:32.879Z,52.30
2019-02-28T11:40:22.542Z,51.37
2019-02-28T11:43:10.620Z,52.27
2019-02-28T11:46:00.782Z,51.70
2019-02-28T11:48:48.135Z,51.17
2019-02-28T11:51:35.881Z,51.33
2019-02-28T11:54:23.638Z,51.64
2019-02-28T11:57:13.224Z,51.47
2019-02-28T12:00:01.513Z,51.52
2019-02-28T12:02:53.343Z,52.00
2019-02-28T12:05:39.398Z,51.45
2019-02-28T12:08:27.576Z,50.52
2019-02-28T12:11:15.613Z,50.91
2019-02-28T12:14:04.000Z,51.38
2019-02-28T12:16:53.602Z,50.28
2019-02-28T12:19:41.055Z,50.25
2019-02-28T12:22:29.560Z,50.00
2019-02-28T12:25:18.580Z,49.65
2019-02-28T12:28:06.808Z,50.10
2019-02-28T12:30:57.310Z,49.30
2019-02-28T12:33:45.063Z,49.11
2019-02-28T12:36:33.105Z,48.84
2019-02-28T12:39:21.231Z,47.62
2019-02-28T12:42:09.597Z,47.15
2019-02-28T12:44:57.827Z,46.40
2019-02-28T12:47:46.180Z,46.23
2019-02-28T12:50:34.988Z,45.79
2019-02-28T12:53:25.275Z,45.27
2019-02-28T12:56:14.955Z,45.00
2019-02-28T12:59:03.803Z,44.71
2019-02-28T13:01:52.525Z,43.79
2019-02-28T13:04:40.532Z,43.39
2019-02-28T13:07:30.412Z,42.61
2019-02-28T13:10:18.739Z,42.06
2019-02-28T13:13:05.581Z,42.20
2019-02-28T13:15:46.698Z,42.42
2019-02-28T13:18:18.421Z,42.08
2019-02-28T13:20:49.741Z,40.17
2019-02-28T13:23:27.220Z,41.17
2019-02-28T13:26:01.603Z,40.24
2019-02-28T13:28:32.985Z,39.67
2019-02-28T13:31:05.352Z,39.46
2019-02-28T13:33:52.671Z,39.19
2019-02-28T13:36:24.945Z,39.43
2019-02-28T13:39:09.120Z,39.17
2019-02-28T13:41:42.949Z,37.72
2019-02-28T13:44:14.332Z,37.22
2019-02-28T13:46:49.995Z,37.25
2019-02-28T13:49:25.051Z,36.10
2019-02-28T13:51:57.676Z,36.12
2019-02-28T13:54:30.338Z,35.60
2019-02-28T13:57:08.121Z,35.42
2019-02-28T13:59:49.127Z,35.19
2019-02-28T14:02:21.669Z,35.26
2019-02-28T14:05:03.029Z,35.93
2019-02-28T14:07:33.671Z,36.26
2019-02-28T14:10:15.030Z,37.20
2019-02-28T14:12:47.146Z,37.35
2019-02-28T14:15:19.499Z,36.80
2019-02-28T14:17:52.476Z,37.02
2019-02-28T14:20:28.509Z,36.33
2019-02-28T14:23:01.708Z,37.01
2019-02-28T14:25:41.287Z,37.56
2019-02-28T14:28:32.441Z,37.80
2019-02-28T14:31:21.161Z,37.38
2019-02-28T14:34:10.292Z,36.64
2019-02-28T14:36:59.195Z,36.57
2019-02-28T14:39:48.672Z,36.46
2019-02-28T14:42:40.811Z,37.10
2019-02-28T14:45:28.763Z,36.79
2019-02-28T14:48:26.744Z,37.22
2019-02-28T14:51:16.216Z,37.40
2019-02-28T14:53:49.236Z,38.10
2019-02-28T14:56:18.008Z,37.85
2019-02-28T14:58:47.764Z,38.18
2019-02-28T15:01:20.440Z,39.53
2019-02-28T15:03:49.998Z,40.09
2019-02-28T15:06:19.757Z,38.16
2019-02-28T15:08:50.900Z,38.02
2019-02-28T15:11:21.030Z,38.47
2019-02-28T15:13:52.909Z,38.81
2019-02-28T15:16:22.137Z,39.36
2019-02-28T15:18:52.307Z,39.13
2019-02-28T15:21:23.651Z,39.83
2019-02-28T15:23:53.399Z,41.20
2019-02-28T15:26:23.260Z,41.22
2019-02-28T15:28:53.041Z,41.42
2019-02-28T15:31:22.780Z,41.68
2019-02-28T15:33:52.844Z,42.37
2019-02-28T15:36:24.146Z,43.30
2019-02-28T15:38:54.554Z,43.28
2019-02-28T15:41:24.790Z,43.70
2019-02-28T15:43:54.532Z,42.82
2019-02-28T15:46:24.287Z,42.67
2019-02-28T15:48:54.106Z,42.67
2019-02-28T15:51:25.749Z,43.28
2019-02-28T15:53:58.089Z,43.57
2019-02-28T15:56:27.936Z,43.43
2019-02-28T15:58:57.681Z,43.68
2019-02-28T16:01:28.642Z,44.69
2019-02-28T16:03:59.725Z,45.65
2019-02-28T16:06:29.459Z,46.23
2019-02-28T16:08:59.207Z,47.36
2019-02-28T16:11:29.055Z,47.19
2019-02-28T16:14:00.492Z,47.36
2019-02-28T16:16:30.292Z,48.63
2019-02-28T16:19:00.072Z,49.82
2019-02-28T16:21:29.816Z,49.13
2019-02-28T16:24:02.042Z,48.21
2019-02-28T16:26:31.577Z,47.28
2019-02-28T16:29:01.330Z,47.83
2019-02-28T16:31:31.064Z,47.86
2019-02-28T16:34:08.224Z,48.14
2019-02-28T16:36:32.237Z,48.63
2019-02-28T16:39:02.010Z,48.29
2019-02-28T16:41:33.677Z,48.21
2019-02-28T16:44:03.134Z,48.04
2019-02-28T16:46:32.873Z,49.13
2019-02-28T16:49:02.725Z,49.48
2019-02-28T16:51:32.504Z,50.12
2019-02-28T16:54:02.243Z,52.63
2019-02-28T16:56:32.038Z,51.84
2019-02-28T16:59:04.564Z,51.44
2019-02-28T17:01:34.376Z,50.97
2019-02-28T17:04:05.346Z,51.82
2019-02-28T17:06:35.568Z,52.49
2019-02-28T17:09:16.960Z,54.88
2019-02-28T17:11:54.622Z,52.71
2019-02-28T17:14:24.500Z,53.37
2019-02-28T17:17:13.133Z,53.01
2019-02-28T17:19:43.001Z,52.84
2019-02-28T17:22:12.766Z,53.38
2019-02-28T17:24:45.705Z,53.09
2019-02-28T17:27:31.795Z,52.20
2019-02-28T17:30:11.867Z,52.05
2019-02-28T17:32:41.749Z,52.43
2019-02-28T17:35:11.604Z,53.37
2019-02-28T17:37:41.357Z,53.54
2019-02-28T17:40:11.541Z,53.66
2019-02-28T17:42:41.382Z,53.01
2019-02-28T17:45:22.016Z,53.86
2019-02-28T17:48:05.740Z,54.37
2019-02-28T17:51:03.379Z,54.54
2019-02-28T17:53:48.886Z,53.74
2019-02-28T17:56:41.848Z,53.84
2019-02-28T17:59:25.461Z,53.59
2019-02-28T18:02:12.885Z,54.04
2019-02-28T18:05:03.940Z,52.75
2019-02-28T18:07:53.046Z,52.31
2019-02-28T18:10:40.556Z,51.92
2019-02-28T18:13:22.072Z,51.89
2019-02-28T18:15:59.191Z,51.78
2019-02-28T18:18:41.598Z,51.83
2019-02-28T18:21:33.668Z,51.53
2019-02-28T18:24:10.484Z,50.65
2019-02-28T18:27:02.370Z,49.71
2019-02-28T18:29:36.497Z,48.71
2019-02-28T18:32:06.244Z,49.14
2019-02-28T18:34:36.520Z,48.40
2019-02-28T18:37:06.444Z,49.74
2019-02-28T18:39:36.185Z,51.37
2019-02-28T18:42:05.937Z,53.80
2019-02-28T18:44:37.343Z,53.61
2019-02-28T18:47:07.592Z,51.80
2019-02-28T18:49:37.693Z,50.62
2019-02-28T18:52:07.598Z,50.95
2019-02-28T18:54:39.269Z,53.10
2019-02-28T18:57:08.749Z,53.93
2019-02-28T18:59:38.567Z,55.72
2019-02-28T19:02:11.094Z,55.46
2019-02-28T19:04:40.884Z,54.17
2019-02-28T19:07:10.832Z,53.79
2019-02-28T19:09:40.549Z,51.85
2019-02-28T19:12:10.415Z,51.93
2019-02-28T19:14:40.186Z,52.24
2019-02-28T19:17:09.975Z,53.72
2019-02-28T19:19:39.813Z,53.89
2019-02-28T19:22:09.566Z,54.42
2019-02-28T19:24:40.548Z,53.74
2019-02-28T19:27:10.576Z,53.45
2019-02-28T19:29:40.367Z,53.29
2019-02-28T19:32:10.381Z,52.87
2019-02-28T19:34:40.266Z,50.70
2019-02-28T19:37:10.040Z,49.39
2019-02-28T19:39:39.899Z,48.52
2019-02-28T19:42:09.717Z,46.73
2019-02-28T19:44:40.385Z,48.33
2019-02-28T19:47:10.612Z,47.28
2019-02-28T19:49:43.042Z,48.49
2019-02-28T19:52:12.891Z,49.07
2019-02-28T19:54:42.632Z,49.75
2019-02-28T19:57:12.678Z,50.45
2019-02-28T19:59:43.356Z,50.48
2019-02-28T20:02:16.742Z,50.15
2019-02-28T20:04:46.871Z,50.48
2019-02-28T20:07:16.979Z,51.79
2019-02-28T20:09:48.513Z,51.07
2019-02-28T20:12:18.364Z,51.00
2019-02-28T20:14:48.407Z,51.59
2019-02-28T20:17:18.312Z,50.69
2019-02-28T20:19:48.294Z,51.09
2019-02-28T20:22:20.053Z,51.85
2019-02-28T20:24:51.496Z,50.99
2019-02-28T20:27:21.301Z,50.45
2019-02-28T20:29:55.038Z,49.49
2019-02-28T20:32:22.912Z,48.62
2019-02-28T20:34:52.855Z,47.42
2019-02-28T20:37:22.595Z,47.60
2019-02-28T20:39:52.466Z,47.18
2019-02-28T20:42:22.329Z,48.15
2019-02-28T20:44:52.332Z,48.54
2019-02-28T20:47:22.294Z,48.02
2019-02-28T20:49:52.282Z,47.10
2019-02-28T20:52:22.385Z,47.04
2019-02-28T20:54:52.784Z,47.35
2019-02-28T20:57:26.097Z,43.27
2019-02-28T21:00:19.565Z,43.46
2019-02-28T21:03:10.017Z,43.32
2019-02-28T21:06:00.963Z,43.54
2019-02-28T21:08:53.701Z,42.28
2019-02-28T21:11:45.702Z,41.39
2019-02-28T21:14:34.269Z,41.11
2019-02-28T21:17:29.401Z,40.92
2019-02-28T21:20:13.137Z,40.50
2019-02-28T21:23:01.363Z,40.83
2019-02-28T21:25:49.193Z,41.88
2019-02-28T21:28:40.927Z,42.65
2019-02-28T21:31:29.307Z,43.35
2019-02-28T21:34:18.522Z,43.02
2019-02-28T21:37:07.491Z,41.41
2019-02-28T21:40:00.674Z,39.87
2019-02-28T21:42:49.368Z,40.36
2019-02-28T21:45:37.603Z,40.29
2019-02-28T21:48:26.100Z,39.64
2019-02-28T21:51:22.019Z,40.34
2019-02-28T21:54:10.532Z,39.54
2019-02-28T21:57:00.521Z,40.44
2019-02-28T21:59:52.325Z,40.48
2019-02-28T22:02:40.461Z,41.16
2019-02-28T22:05:32.960Z,41.27
2019-02-28T22:08:24.480Z,41.84
2019-02-28T22:11:16.066Z,43.19
2019-02-28T22:14:06.958Z,43.44
2019-02-28T22:16:56.720Z,44.02
2019-02-28T22:19:46.458Z,44.00
2019-02-28T22:22:38.513Z,44.46
2019-02-28T22:25:28.331Z,44.21
2019-02-28T22:28:17.466Z,44.87
2019-02-28T22:31:29.798Z,44.95
2019-02-28T22:34:30.115Z,45.13
2019-02-28T22:37:18.536Z,42.41
2019-02-28T22:40:07.538Z,40.36
2019-02-28T22:42:59.013Z,38.56
2019-02-28T22:45:47.681Z,37.32
2019-02-28T22:48:36.000Z,36.73
2019-02-28T22:51:25.148Z,37.31
2019-02-28T22:54:14.989Z,38.56
2019-02-28T22:57:09.237Z,39.44
2019-02-28T22:59:57.569Z,41.08
2019-02-28T23:02:46.373Z,42.36
2019-02-28T23:05:45.730Z,42.63
2019-02-28T23:08:34.206Z,42.92
2019-02-28T23:11:23.532Z,42.71
2019-02-28T23:14:16.885Z,42.62
2019-02-28T23:17:06.758Z,41.90
2019-02-28T23:19:56.383Z,41.64
2019-02-28T23:22:45.779Z,41.14
2019-02-28T23:25:45.676Z,40.00
2019-02-28T23:28:38.650Z,39.76
2019-02-28T23:31:44.407Z,41.94
2019-02-28T23:34:40.805Z,41.99
2019-02-28T23:37:29.211Z,42.95
2019-02-28T23:40:21.761Z,45.07
2019-02-28T23:43:12.557Z,46.00
2019-02-28T23:46:01.040Z,47.81
2019-02-28T23:48:53.787Z,44.13
2019-02-28T23:51:44.407Z,46.88
2019-02-28T23:54:32.930Z,49.50
2019-02-28T23:57:23.882Z,47.22
